Time;durP1;ratioP1;P1;durP2;ratioP2;P2;SDS_P1;SDS_P2;PMS_P1;PMS_P2;Temp;Humidity;BMP_temperature;BMP_pressure;BME280_temperature;BME280_humidity;BME280_pressure;Samples;Min_cycle;Max_cycle;Signal;HPM_P1;HPM_P2
2021/04/13 00:01:15;;;;;;;6.25;2.80;;;0.20;92.10;;;;;;4960902;28;20053;-68
2021/04/13 00:03:51;;;;;;;7.38;2.92;;;0.20;92.10;;;;;;4961848;28;20073;-68
2021/04/13 00:06:39;;;;;;;6.70;2.90;;;0.20;92.20;;;;;;4961224;28;20510;-70
2021/04/13 00:09:13;;;;;;;7.35;2.97;;;0.10;92.20;;;;;;4962626;28;20550;-68
2021/04/13 00:11:40;;;;;;;7.10;3.30;;;0.10;92.40;;;;;;4960505;28;20026;-69
2021/04/13 00:14:09;;;;;;;8.95;3.47;;;0.10;92.60;;;;;;4973055;28;20085;-68
2021/04/13 00:16:36;;;;;;;5.63;3.05;;;0.10;92.40;;;;;;4962597;28;20181;-68
2021/04/13 00:19:07;;;;;;;4.75;2.90;;;0.10;92.50;;;;;;4971926;28;20026;-68
2021/04/13 00:21:44;;;;;;;6.10;3.42;;;0.10;92.60;;;;;;4977527;28;20496;-69
2021/04/13 00:24:17;;;;;;;9.15;2.75;;;0.00;92.50;;;;;;4979726;28;20038;-69
2021/04/13 00:26:54;;;;;;;8.75;3.63;;;0.00;92.60;;;;;;4968749;28;20511;-69
2021/04/13 00:29:27;;;;;;;7.80;3.25;;;0.00;92.90;;;;;;4958042;28;20025;-69
2021/04/13 00:32:02;;;;;;;8.82;3.40;;;0.00;92.90;;;;;;4969882;28;20596;-69
2021/04/13 00:37:29;;;;;;;10.13;3.83;;;0.00;92.80;;;;;;4952761;28;20038;-68
2021/04/13 00:40:12;;;;;;;8.75;3.47;;;0.00;93.00;;;;;;4976719;28;20030;-68
2021/04/13 00:42:39;;;;;;;8.13;3.65;;;0.00;93.00;;;;;;4971361;28;20454;-68
2021/04/13 00:45:14;;;;;;;13.23;3.90;;;0.00;93.00;;;;;;4973218;28;20081;-67
2021/04/13 00:47:42;;;;;;;8.20;3.38;;;0.00;93.10;;;;;;4973236;28;20057;-68
2021/04/13 00:50:14;;;;;;;12.73;4.03;;;0.10;93.10;;;;;;4971655;28;20030;-69
2021/04/13 00:52:48;;;;;;;7.30;3.20;;;0.10;93.20;;;;;;4979430;28;20745;-68
2021/04/13 00:55:16;;;;;;;7.78;4.28;;;0.00;93.00;;;;;;4978188;28;20038;-67
2021/04/13 00:57:48;;;;;;;7.72;3.53;;;0.10;93.10;;;;;;4972476;28;20027;-68
2021/04/13 01:00:27;;;;;;;8.02;3.58;;;0.00;93.10;;;;;;4980096;28;20442;-68
2021/04/13 01:02:58;;;;;;;8.90;3.38;;;0.00;93.00;;;;;;4972446;28;20031;-70
2021/04/13 01:05:39;;;;;;;6.55;3.67;;;0.00;93.00;;;;;;4976956;28;20381;-69
2021/04/13 01:08:40;;;;;;;10.27;3.67;;;0.00;93.00;;;;;;4975515;28;20027;-69
2021/04/13 01:11:16;;;;;;;8.73;3.72;;;-3276.70;93.00;;;;;;4985621;28;20070;-70
2021/04/13 01:13:49;;;;;;;8.35;3.70;;;-3276.70;93.20;;;;;;4986012;28;20487;-70
2021/04/13 01:16:18;;;;;;;6.55;3.75;;;-3276.60;93.20;;;;;;4980006;28;20113;-68
2021/04/13 01:18:50;;;;;;;7.25;3.55;;;-3276.60;93.40;;;;;;4976161;28;20501;-69
2021/04/13 01:21:26;;;;;;;7.97;3.40;;;-3276.60;93.50;;;;;;4976802;28;20133;-68
2021/04/13 01:26:19;;;;;;;7.65;4.00;;;-3276.60;93.60;;;;;;4992684;28;20041;-67
2021/04/13 01:28:46;;;;;;;9.05;4.18;;;-3276.60;93.60;;;;;;4974739;28;20134;-68
2021/04/13 01:34:53;;;;;;;5.38;3.50;;;-3276.60;93.70;;;;;;4910206;29;20028;-66
2021/04/13 01:42:17;;;;;;;11.88;4.53;;;0.00;93.70;;;;;;4987888;28;20061;-66
2021/04/13 01:44:57;;;;;;;7.82;4.25;;;0.00;93.60;;;;;;4976239;28;20033;-68
2021/04/13 01:47:24;;;;;;;13.68;4.65;;;0.00;93.50;;;;;;4984483;28;20118;-67
2021/04/13 01:49:52;;;;;;;6.13;4.13;;;-3276.70;93.50;;;;;;4980682;28;20035;-66
2021/04/13 01:52:42;;;;;;;7.00;4.03;;;-3276.70;93.60;;;;;;4974971;28;20049;-68
2021/04/13 01:55:17;;;;;;;12.80;4.25;;;-3276.70;93.60;;;;;;4979745;28;20117;-68
2021/04/13 01:57:56;;;;;;;10.40;4.20;;;-3276.60;93.70;;;;;;4987528;28;20041;-68
2021/04/13 02:00:30;;;;;;;8.05;4.28;;;-3276.60;93.80;;;;;;4974224;28;20038;-67
2021/04/13 02:03:08;;;;;;;9.95;4.15;;;-3276.50;93.70;;;;;;4979507;28;20209;-69
2021/04/13 02:05:40;;;;;;;7.80;4.32;;;-3276.50;93.90;;;;;;4981350;28;20061;-68
2021/04/13 02:08:18;;;;;;;10.73;4.30;;;-3276.50;94.00;;;;;;4975882;28;20407;-68
2021/04/13 02:10:55;;;;;;;10.35;4.00;;;-3276.40;94.00;;;;;;4971709;28;20023;-68
2021/04/13 02:13:28;;;;;;;11.10;4.13;;;-3276.40;94.00;;;;;;4983551;28;20030;-67
2021/04/13 02:16:20;;;;;;;13.38;5.05;;;-3276.30;93.90;;;;;;4977797;28;20026;-69
2021/04/13 02:18:49;;;;;;;7.85;4.20;;;-3276.30;94.00;;;;;;4969585;28;20300;-68
2021/04/13 02:21:19;;;;;;;14.35;5.22;;;-3276.30;94.30;;;;;;4985866;28;20053;-70
2021/04/13 02:23:54;;;;;;;15.27;5.13;;;-3276.40;94.50;;;;;;4982570;28;20026;-69
2021/04/13 02:26:20;;;;;;;9.75;4.88;;;-3276.30;94.40;;;;;;4984150;28;20068;-67
2021/04/13 02:28:49;;;;;;;10.20;5.13;;;-3276.40;94.80;;;;;;4990615;28;21583;-67
2021/04/13 02:31:36;;;;;;;10.57;5.93;;;-3276.40;94.70;;;;;;4978174;28;20030;-67
2021/04/13 02:34:25;;;;;;;11.98;5.78;;;-3276.40;94.70;;;;;;4978675;28;20486;-68
2021/04/13 02:37:13;;;;;;;17.92;6.07;;;-3276.40;94.70;;;;;;4982581;28;20038;-68
2021/04/13 02:39:40;;;;;;;11.25;5.50;;;-3276.40;94.80;;;;;;4976649;28;20412;-69
2021/04/13 02:42:15;;;;;;;11.05;5.82;;;-3276.40;94.80;;;;;;4978497;28;20038;-68
2021/04/13 02:44:41;;;;;;;11.23;5.70;;;-3276.30;94.70;;;;;;4981593;28;20419;-68
2021/04/13 02:47:12;;;;;;;15.50;6.43;;;-3276.30;94.80;;;;;;4979992;28;20030;-68
2021/04/13 02:49:40;;;;;;;12.40;6.15;;;-3276.30;94.80;;;;;;4987686;28;20030;-67
2021/04/13 02:52:19;;;;;;;12.00;5.60;;;-3276.20;94.80;;;;;;4975433;28;20030;-70
2021/04/13 02:54:52;;;;;;;17.33;8.02;;;-3276.20;94.80;;;;;;4980214;28;20023;-68
2021/04/13 02:57:38;;;;;;;20.92;8.48;;;-3276.20;95.00;;;;;;4980535;28;20510;-68
2021/04/13 03:00:08;;;;;;;16.00;7.68;;;-3276.20;95.00;;;;;;4975358;28;20050;-68
2021/04/13 03:03:04;;;;;;;20.57;9.13;;;-3276.00;94.80;;;;;;4974836;28;20033;-68
2021/04/13 03:05:30;;;;;;;23.80;9.45;;;-3276.00;94.90;;;;;;4969089;28;20410;-70
2021/04/13 03:07:58;;;;;;;20.20;9.02;;;-3276.10;95.10;;;;;;4976623;28;20495;-69
2021/04/13 03:10:31;;;;;;;22.48;7.78;;;-3276.20;95.20;;;;;;4971760;28;20034;-69
2021/04/13 03:12:59;;;;;;;17.38;7.22;;;-3276.20;95.30;;;;;;4980267;28;20034;-70
2021/04/13 03:15:28;;;;;;;18.75;7.90;;;-3276.10;95.10;;;;;;4980788;28;20559;-69
2021/04/13 03:17:59;;;;;;;18.40;8.23;;;-3276.20;95.30;;;;;;4964723;28;20034;-68
2021/04/13 03:20:28;;;;;;;16.42;8.20;;;-3276.20;95.30;;;;;;4985303;28;20414;-69
2021/04/13 03:22:57;;;;;;;23.75;9.00;;;-3276.30;95.40;;;;;;4982996;28;20038;-68
2021/04/13 03:25:28;;;;;;;20.95;8.82;;;-3276.30;95.50;;;;;;4980932;28;20038;-69
2021/04/13 03:27:55;;;;;;;22.13;9.50;;;-3276.50;95.60;;;;;;4975722;28;20618;-70
2021/04/13 03:30:28;;;;;;;18.75;9.10;;;-3276.60;95.50;;;;;;4981711;28;20030;-69
2021/04/13 03:33:02;;;;;;;25.90;8.30;;;-3276.60;95.40;;;;;;4976166;28;20426;-68
2021/04/13 03:35:29;;;;;;;15.57;7.70;;;-3276.70;95.30;;;;;;4975236;28;20026;-69
2021/04/13 03:37:57;;;;;;;18.23;8.07;;;0.00;95.40;;;;;;4977591;28;20173;-68
2021/04/13 03:40:25;;;;;;;18.92;8.13;;;0.00;95.40;;;;;;5001870;28;20026;-69
2021/04/13 03:42:58;;;;;;;21.67;8.52;;;0.00;95.30;;;;;;4987218;28;20430;-69
2021/04/13 03:45:25;;;;;;;14.88;7.28;;;0.00;95.40;;;;;;4979382;28;20122;-68
2021/04/13 03:47:51;;;;;;;24.05;8.20;;;0.00;95.30;;;;;;4979291;28;20398;-68
2021/04/13 03:50:22;;;;;;;21.88;8.30;;;0.00;95.40;;;;;;4982336;28;20026;-69
2021/04/13 03:52:58;;;;;;;;;;;0.00;95.40;;;;;;4985446;28;20029;-71
2021/04/13 03:55:24;;;;;;;21.83;6.97;;;0.00;95.40;;;;;;4975508;28;19943;-69
2021/04/13 03:57:50;;;;;;;14.32;7.10;;;0.00;95.50;;;;;;4986573;28;20022;-70
2021/04/13 04:00:20;;;;;;;26.95;8.27;;;0.00;95.40;;;;;;4981291;28;20391;-67
2021/04/13 04:02:47;;;;;;;20.58;7.82;;;0.00;95.40;;;;;;4973576;28;20101;-70
2021/04/13 04:05:18;;;;;;;18.42;8.13;;;0.00;95.50;;;;;;4982568;28;20484;-69
2021/04/13 04:07:55;;;;;;;;;;;0.10;95.60;;;;;;4985626;28;20516;-68
2021/04/13 04:10:46;;;;;;;19.05;6.93;;;0.10;95.60;;;;;;4979708;28;19953;-69
2021/04/13 04:13:17;;;;;;;16.40;6.10;;;0.10;95.60;;;;;;4975535;28;20387;-68
2021/04/13 04:16:02;;;;;;;19.85;7.70;;;0.10;95.60;;;;;;4976060;28;20483;-69
2021/04/13 04:18:34;;;;;;;18.85;6.68;;;0.10;95.50;;;;;;4971994;28;20031;-70
2021/04/13 04:21:24;;;;;;;20.00;7.43;;;0.20;95.60;;;;;;4970168;28;20512;-68
2021/04/13 04:24:14;;;;;;;16.73;7.70;;;0.20;95.60;;;;;;4963339;28;20026;-67
2021/04/13 04:26:51;;;;;;;15.82;5.80;;;0.20;95.60;;;;;;4951859;28;20125;-69
2021/04/13 04:29:22;;;;;;;23.45;7.13;;;0.20;95.60;;;;;;4952716;28;20088;-69
2021/04/13 04:31:48;;;;;;;16.13;6.95;;;0.20;95.60;;;;;;4962530;28;20415;-69
2021/04/13 04:34:14;;;;;;;15.90;7.10;;;0.10;95.60;;;;;;4963504;28;20093;-68
2021/04/13 04:36:40;;;;;;;16.70;7.07;;;0.10;95.60;;;;;;4966703;28;20046;-68
2021/04/13 04:39:24;;;;;;;25.77;7.22;;;0.20;95.70;;;;;;4975288;28;20159;-66
2021/04/13 04:41:51;;;;;;;21.23;7.10;;;0.20;95.60;;;;;;4986742;28;20028;-67
2021/04/13 04:44:28;;;;;;;17.77;6.85;;;0.10;95.60;;;;;;4976916;28;20065;-67
2021/04/13 04:46:58;;;;;;;16.75;6.38;;;0.10;95.60;;;;;;4988710;28;20030;-67
2021/04/13 04:49:24;;;;;;;20.08;6.65;;;0.30;95.90;;;;;;4975923;28;20505;-67
2021/04/13 04:51:53;;;;;;;13.75;6.22;;;0.40;95.70;;;;;;4977872;28;20034;-67
2021/04/13 04:54:21;;;;;;;19.50;6.22;;;0.30;95.60;;;;;;4979999;28;20531;-67
2021/04/13 04:56:47;;;;;;;21.63;6.57;;;0.40;95.60;;;;;;4978867;28;20093;-68
2021/04/13 04:59:13;;;;;;;20.48;7.72;;;0.40;95.60;;;;;;4981662;28;20026;-68
2021/04/13 05:01:38;;;;;;;17.70;7.00;;;0.40;95.60;;;;;;4978182;28;20035;-68
2021/04/13 05:04:04;;;;;;;13.60;6.38;;;0.40;95.60;;;;;;4978840;28;20085;-68
2021/04/13 05:06:30;;;;;;;15.48;7.15;;;0.40;95.50;;;;;;4977574;28;20315;-68
2021/04/13 05:08:55;;;;;;;25.33;7.43;;;0.50;95.50;;;;;;4974638;28;20085;-68
2021/04/13 05:11:23;;;;;;;17.70;7.68;;;0.40;95.50;;;;;;4983322;28;20102;-68
2021/04/13 05:13:49;;;;;;;11.77;6.45;;;0.50;95.50;;;;;;4963391;28;20042;-66
2021/04/13 05:16:14;;;;;;;14.15;7.13;;;0.50;95.50;;;;;;4980463;28;20084;-68
2021/04/13 05:18:40;;;;;;;15.23;7.25;;;0.60;95.50;;;;;;4979606;28;20372;-68
2021/04/13 05:21:06;;;;;;;22.20;6.32;;;0.60;95.40;;;;;;4977950;28;20040;-68
2021/04/13 05:23:32;;;;;;;17.20;7.25;;;0.60;95.40;;;;;;4987223;28;20407;-68
2021/04/13 05:25:58;;;;;;;14.63;6.47;;;0.60;95.40;;;;;;4976035;28;20022;-68
2021/04/13 05:28:23;;;;;;;12.40;6.95;;;0.70;95.40;;;;;;4986912;28;20026;-68
2021/04/13 05:30:50;;;;;;;16.23;6.40;;;0.80;95.30;;;;;;4987167;28;20022;-68
2021/04/13 05:33:17;;;;;;;19.23;6.47;;;0.80;95.30;;;;;;4977138;28;20073;-67
2021/04/13 05:35:43;;;;;;;17.15;6.88;;;0.80;95.20;;;;;;4984183;28;20479;-68
2021/04/13 05:38:20;;;;;;;12.05;6.32;;;0.80;95.10;;;;;;4983077;28;20104;-68
2021/04/13 05:40:46;;;;;;;12.55;5.78;;;0.90;95.00;;;;;;4984901;28;20022;-68
2021/04/13 05:43:14;;;;;;;14.73;5.35;;;0.90;94.90;;;;;;4982689;28;20018;-67
2021/04/13 05:45:43;;;;;;;12.68;6.22;;;0.90;94.80;;;;;;4980895;28;20023;-68
2021/04/13 05:48:10;;;;;;;14.10;5.90;;;1.10;94.70;;;;;;4977805;28;20040;-66
2021/04/13 05:50:39;;;;;;;13.40;5.32;;;1.10;94.50;;;;;;4976095;28;20132;-68
2021/04/13 05:53:05;;;;;;;13.23;4.85;;;1.20;94.30;;;;;;4977665;28;20030;-67
2021/04/13 05:55:31;;;;;;;15.02;5.03;;;1.20;94.10;;;;;;4982400;28;20077;-67
2021/04/13 05:58:05;;;;;;;12.43;4.80;;;1.30;94.00;;;;;;4997691;28;20069;-68
2021/04/13 06:00:31;;;;;;;12.18;4.90;;;1.40;93.60;;;;;;4978609;28;20763;-66
2021/04/13 06:02:59;;;;;;;15.93;4.47;;;1.50;93.40;;;;;;4981220;28;20526;-68
2021/04/13 06:05:27;;;;;;;11.77;3.88;;;1.60;93.10;;;;;;4977998;28;20394;-68
2021/04/13 06:07:54;;;;;;;9.57;3.60;;;1.70;92.90;;;;;;4980947;28;20419;-67
2021/04/13 06:10:21;;;;;;;6.63;2.97;;;1.80;92.40;;;;;;4971851;28;20368;-67
2021/04/13 06:12:55;;;;;;;6.13;3.08;;;1.80;92.00;;;;;;4978220;28;20028;-67
2021/04/13 06:15:23;;;;;;;8.10;3.10;;;1.90;91.70;;;;;;4976005;28;20495;-67
2021/04/13 06:17:49;;;;;;;10.02;3.17;;;2.00;91.60;;;;;;4976883;28;20042;-66
2021/04/13 06:20:17;;;;;;;8.77;2.92;;;2.10;91.30;;;;;;4980056;28;20463;-67
2021/04/13 06:22:44;;;;;;;7.80;3.00;;;2.20;91.10;;;;;;4983575;28;20045;-66
2021/04/13 06:25:10;;;;;;;8.38;2.42;;;2.30;90.90;;;;;;4979435;28;20038;-68
2021/04/13 06:27:36;;;;;;;10.27;2.65;;;2.40;90.80;;;;;;4987424;28;20045;-68
2021/04/13 06:30:03;;;;;;;8.88;2.72;;;2.50;90.30;;;;;;4984190;28;20022;-67
2021/04/13 06:32:28;;;;;;;5.70;2.50;;;2.60;90.00;;;;;;4976228;28;20080;-68
2021/04/13 06:34:54;;;;;;;6.57;2.50;;;2.70;89.90;;;;;;4985404;28;20022;-68
2021/04/13 06:37:20;;;;;;;9.00;2.28;;;2.70;89.50;;;;;;4987933;28;20120;-67
2021/04/13 06:39:46;;;;;;;9.90;1.95;;;2.80;89.60;;;;;;4981384;28;20270;-67
2021/04/13 06:42:39;;;;;;;9.20;2.33;;;3.00;89.30;;;;;;4984451;28;20514;-68
2021/04/13 06:45:23;;;;;;;7.38;2.10;;;3.10;88.90;;;;;;4977717;28;20022;-67
2021/04/13 06:48:27;;;;;;;7.05;2.30;;;3.10;88.50;;;;;;4985098;28;20088;-66
2021/04/13 06:51:04;;;;;;;3.45;1.70;;;3.20;88.50;;;;;;4981712;28;20122;-67
2021/04/13 06:53:53;;;;;;;11.05;2.13;;;3.30;87.90;;;;;;4985566;28;20530;-67
2021/04/13 06:56:45;;;;;;;9.88;2.30;;;3.60;87.80;;;;;;4974536;28;20602;-68
2021/04/13 06:59:28;;;;;;;4.55;1.70;;;3.60;86.60;;;;;;4978935;28;20382;-68
2021/04/13 07:02:19;;;;;;;6.28;1.98;;;3.80;86.20;;;;;;4986315;28;20033;-68
2021/04/13 07:04:56;;;;;;;7.85;1.88;;;4.00;86.60;;;;;;4978443;28;20055;-67
2021/04/13 07:07:35;;;;;;;5.15;1.58;;;4.10;86.00;;;;;;4984330;28;20027;-68
2021/04/13 07:10:48;;;;;;;9.25;1.58;;;4.10;85.00;;;;;;4978575;28;20384;-68
2021/04/13 07:13:17;;;;;;;4.60;1.40;;;4.20;85.60;;;;;;4971500;28;20198;-68
2021/04/13 07:15:49;;;;;;;6.45;1.63;;;4.40;85.40;;;;;;4981170;28;20037;-68
2021/04/13 07:18:25;;;;;;;10.07;2.08;;;4.50;84.50;;;;;;4984536;28;20061;-67
2021/04/13 07:21:05;;;;;;;7.60;1.75;;;4.60;84.10;;;;;;4987978;28;20034;-68
2021/04/13 07:23:37;;;;;;;7.88;1.85;;;4.60;84.60;;;;;;4988167;28;20038;-67
2021/04/13 07:26:18;;;;;;;12.00;2.50;;;4.30;84.10;;;;;;4978815;28;20434;-68
2021/04/13 07:28:59;;;;;;;6.78;1.85;;;4.40;84.20;;;;;;4988217;28;20486;-67
2021/04/13 07:31:42;;;;;;;5.28;1.75;;;4.40;84.10;;;;;;4980985;28;20039;-68
2021/04/13 07:34:08;;;;;;;6.55;2.05;;;4.40;84.90;;;;;;4976301;28;20180;-67
2021/04/13 07:36:53;;;;;;;6.05;1.85;;;4.60;84.90;;;;;;4987180;28;20516;-67
2021/04/13 07:39:19;;;;;;;5.75;1.85;;;5.00;83.50;;;;;;4986651;28;20035;-67
2021/04/13 07:41:52;;;;;;;11.02;2.05;;;5.10;83.50;;;;;;4983164;28;20034;-68
2021/04/13 07:44:22;;;;;;;7.13;1.90;;;4.80;83.40;;;;;;4982574;28;20391;-66
2021/04/13 07:46:58;;;;;;;12.35;2.13;;;5.00;83.50;;;;;;4986112;28;20133;-66
2021/04/13 07:49:32;;;;;;;9.48;2.45;;;5.10;82.60;;;;;;4964586;28;20019;-68
2021/04/13 07:52:16;;;;;;;10.38;1.88;;;5.10;82.70;;;;;;4971628;28;20030;-68
2021/04/13 07:54:51;;;;;;;11.43;2.20;;;5.20;82.50;;;;;;4980647;28;20027;-68
2021/04/13 07:57:31;;;;;;;10.55;2.42;;;5.00;82.80;;;;;;4978819;28;20069;-68
2021/04/13 08:00:18;;;;;;;10.65;2.63;;;5.20;82.90;;;;;;4984912;28;20038;-68
2021/04/13 08:02:49;;;;;;;8.73;2.00;;;5.80;81.20;;;;;;4980341;28;20425;-67
2021/04/13 08:05:44;;;;;;;9.32;2.33;;;5.70;80.50;;;;;;4983425;28;20041;-68
2021/04/13 08:08:31;;;;;;;8.50;1.80;;;5.50;80.50;;;;;;4989120;28;20057;-68
2021/04/13 08:11:19;;;;;;;9.50;2.00;;;5.40;80.70;;;;;;4985706;28;20364;-68
2021/04/13 08:13:48;;;;;;;6.68;1.75;;;5.60;80.40;;;;;;4987353;28;20103;-68
2021/04/13 08:16:38;;;;;;;12.05;2.13;;;6.20;79.10;;;;;;4981806;28;20052;-68
2021/04/13 08:19:28;;;;;;;6.68;1.65;;;6.50;78.00;;;;;;4977789;28;20031;-67
2021/04/13 08:22:00;;;;;;;7.55;1.90;;;6.20;77.40;;;;;;4983536;28;20192;-68
2021/04/13 08:24:45;;;;;;;6.57;1.92;;;6.10;77.40;;;;;;4981897;28;20364;-67
2021/04/13 08:27:23;;;;;;;9.65;2.00;;;6.40;78.40;;;;;;4987006;28;20033;-68
2021/04/13 08:30:10;;;;;;;8.82;2.08;;;6.50;74.90;;;;;;4978945;28;20038;-68
2021/04/13 08:32:53;;;;;;;8.68;2.10;;;6.70;75.30;;;;;;4977158;28;20031;-68
2021/04/13 08:36:00;;;;;;;10.68;1.92;;;7.30;73.80;;;;;;4982670;28;20094;-68
2021/04/13 08:39:03;;;;;;;11.05;1.80;;;7.40;72.20;;;;;;4964093;28;20065;-68
2021/04/13 08:41:55;;;;;;;9.10;1.88;;;7.00;72.90;;;;;;4985696;28;20072;-67
2021/04/13 08:44:24;;;;;;;8.55;1.58;;;7.30;71.30;;;;;;4983029;28;20092;-68
2021/04/13 08:47:18;;;;;;;8.25;2.13;;;7.00;71.90;;;;;;4982358;28;20081;-67
2021/04/13 08:49:53;;;;;;;12.52;1.70;;;7.30;72.10;;;;;;4975962;28;20046;-68
2021/04/13 08:52:38;;;;;;;18.77;2.22;;;7.20;70.70;;;;;;4980212;28;20035;-68
2021/04/13 08:55:17;;;;;;;11.13;1.55;;;7.20;71.70;;;;;;4987082;28;20145;-67
2021/04/13 08:58:07;;;;;;;10.52;1.65;;;7.40;71.30;;;;;;4982678;28;20645;-70
2021/04/13 09:00:48;;;;;;;8.70;1.57;;;7.80;70.10;;;;;;4974182;28;20042;-67
2021/04/13 09:03:16;;;;;;;6.40;1.80;;;7.30;70.20;;;;;;4974618;28;20394;-68
2021/04/13 09:05:44;;;;;;;9.00;1.23;;;6.90;70.40;;;;;;4971807;28;20059;-68
2021/04/13 09:08:13;;;;;;;7.43;1.95;;;7.30;70.70;;;;;;4972137;28;20030;-68
2021/04/13 09:11:05;;;;;;;6.75;1.60;;;7.30;69.40;;;;;;4977293;28;20554;-68
2021/04/13 09:13:36;;;;;;;5.70;1.25;;;8.10;68.10;;;;;;4965848;28;20039;-67
2021/04/13 09:16:11;;;;;;;7.22;1.40;;;8.00;67.00;;;;;;4978022;28;20113;-67
2021/04/13 09:18:45;;;;;;;5.35;1.33;;;7.80;65.80;;;;;;4975327;28;20585;-68
2021/04/13 09:21:39;;;;;;;7.78;1.42;;;7.50;66.70;;;;;;4983325;28;20031;-68
2021/04/13 09:24:14;;;;;;;11.38;2.00;;;7.90;66.40;;;;;;4975169;28;20018;-68
2021/04/13 09:27:15;;;;;;;9.48;1.98;;;7.90;64.90;;;;;;4982487;28;20471;-68
2021/04/13 09:29:50;;;;;;;6.68;1.48;;;8.50;62.90;;;;;;4981003;28;20449;-68
2021/04/13 09:32:30;;;;;;;7.55;1.27;;;8.10;63.30;;;;;;4988429;28;20073;-68
2021/04/13 09:35:20;;;;;;;7.07;1.50;;;8.50;63.70;;;;;;4976627;28;20034;-68
2021/04/13 09:38:17;;;;;;;9.30;2.03;;;8.80;63.00;;;;;;4973247;28;20026;-67
2021/04/13 09:40:53;;;;;;;10.15;1.63;;;9.40;60.20;;;;;;4981697;28;20553;-68
2021/04/13 09:43:41;;;;;;;8.48;1.52;;;8.80;61.40;;;;;;4981857;28;20117;-68
2021/04/13 09:46:51;;;;;;;9.20;1.63;;;8.00;63.20;;;;;;4984656;28;20243;-67
2021/04/13 09:49:35;;;;;;;7.55;1.55;;;8.50;63.10;;;;;;4921521;29;20039;-68
2021/04/13 09:52:14;;;;;;;6.00;1.40;;;8.90;63.70;;;;;;4918327;29;20392;-68
2021/04/13 09:54:44;;;;;;;10.93;2.00;;;8.40;64.00;;;;;;4969465;28;20057;-68
2021/04/13 09:57:48;;;;;;;7.13;1.85;;;8.60;64.00;;;;;;4983133;28;20034;-68
2021/04/13 10:00:41;;;;;;;6.80;1.58;;;8.80;62.40;;;;;;4964709;28;20046;-68
2021/04/13 10:03:40;;;;;;;6.32;1.50;;;9.00;61.40;;;;;;4966140;28;20065;-68
2021/04/13 10:06:09;;;;;;;7.55;1.40;;;9.00;61.30;;;;;;4979287;28;20045;-67
2021/04/13 10:08:38;;;;;;;10.23;1.58;;;9.10;59.80;;;;;;4986899;28;20033;-68
2021/04/13 10:11:10;;;;;;;11.02;1.70;;;9.40;57.80;;;;;;4981141;28;20403;-68
2021/04/13 10:14:04;;;;;;;7.45;1.85;;;9.10;60.60;;;;;;4969669;28;20673;-68
2021/04/13 10:17:05;;;;;;;9.95;2.05;;;7.80;70.10;;;;;;4966926;28;20117;-68
2021/04/13 10:19:46;;;;;;;;;;;6.40;77.10;;;;;;4975161;28;20434;-68
2021/04/13 10:22:36;;;;;;;10.07;1.60;;;5.80;79.60;;;;;;4975745;28;20381;-68
2021/04/13 10:25:22;;;;;;;9.23;1.33;;;6.70;80.30;;;;;;4970572;28;20031;-68
2021/04/13 10:28:03;;;;;;;7.88;1.40;;;7.30;78.90;;;;;;4981428;28;20053;-70
2021/04/13 10:30:57;;;;;;;6.17;1.30;;;7.70;77.00;;;;;;4965661;28;20542;-68
2021/04/13 10:33:51;;;;;;;4.40;1.20;;;8.40;74.60;;;;;;4980014;28;20387;-68
2021/04/13 10:36:41;;;;;;;5.57;1.08;;;8.60;71.90;;;;;;4982982;28;20041;-68
2021/04/13 10:39:40;;;;;;;5.55;1.27;;;9.00;71.80;;;;;;4980901;28;20073;-68
2021/04/13 10:42:30;;;;;;;7.65;1.48;;;9.00;65.10;;;;;;4984366;28;20023;-68
2021/04/13 10:45:13;;;;;;;5.45;1.10;;;9.60;59.10;;;;;;4976798;28;20490;-68
2021/04/13 10:48:00;;;;;;;7.32;1.30;;;9.10;54.00;;;;;;4979029;28;20293;-68
2021/04/13 10:51:03;;;;;;;7.10;1.30;;;9.20;53.40;;;;;;4986287;28;20076;-68
2021/04/13 10:54:13;;;;;;;6.47;1.33;;;9.00;56.70;;;;;;4978723;28;20109;-68
2021/04/13 10:57:06;;;;;;;10.90;1.85;;;8.80;58.70;;;;;;4964890;28;20049;-68
2021/04/13 10:59:59;;;;;;;7.30;1.40;;;8.50;61.20;;;;;;4984839;28;20031;-68
2021/04/13 11:02:55;;;;;;;7.93;1.70;;;7.90;66.70;;;;;;4983559;28;20026;-68
2021/04/13 11:05:41;;;;;;;6.30;1.50;;;7.10;69.40;;;;;;4987611;28;20328;-68
2021/04/13 11:08:49;;;;;;;11.57;1.65;;;6.60;71.70;;;;;;4981028;28;20046;-67
2021/04/13 11:11:23;;;;;;;6.60;1.45;;;5.90;74.00;;;;;;4986857;28;20134;-68
2021/04/13 11:14:06;;;;;;;11.50;1.58;;;5.20;78.60;;;;;;4982294;28;20034;-67
2021/04/13 11:16:59;;;;;;;5.03;1.30;;;5.20;81.30;;;;;;4990566;28;20554;-68
2021/04/13 11:19:33;;;;;;;9.38;1.70;;;5.40;81.50;;;;;;4979686;28;20454;-67
2021/04/13 11:22:19;;;;;;;4.38;1.17;;;5.60;81.50;;;;;;4983122;28;20076;-68
2021/04/13 11:25:07;;;;;;;5.45;1.60;;;6.40;83.30;;;;;;4974121;28;20038;-68
2021/04/13 11:27:48;;;;;;;7.43;1.52;;;6.60;78.20;;;;;;4977894;28;20030;-68
2021/04/13 11:30:37;;;;;;;5.97;0.97;;;6.30;78.30;;;;;;4985471;28;20022;-68
2021/04/13 11:33:17;;;;;;;5.88;1.38;;;5.80;82.20;;;;;;4976530;28;20333;-67
2021/04/13 11:35:46;;;;;;;7.93;1.77;;;5.60;81.50;;;;;;4986498;28;20034;-69
2021/04/13 11:38:39;;;;;;;10.30;1.75;;;5.60;82.40;;;;;;4988512;28;20034;-68
2021/04/13 11:41:33;;;;;;;11.68;1.70;;;5.70;82.30;;;;;;4987358;28;20057;-68
2021/04/13 11:44:06;;;;;;;7.22;1.38;;;5.90;81.80;;;;;;4968943;28;20049;-68
2021/04/13 11:46:47;;;;;;;13.00;1.90;;;7.10;81.50;;;;;;4965438;28;20026;-68
2021/04/13 11:49:26;;;;;;;8.10;1.60;;;7.70;76.40;;;;;;4985781;28;20208;-69
2021/04/13 11:52:11;;;;;;;5.57;1.30;;;8.20;76.40;;;;;;4993164;28;20380;-69
2021/04/13 11:54:54;;;;;;;8.63;2.05;;;8.60;72.10;;;;;;4990440;28;20071;-68
2021/04/13 11:57:25;;;;;;;5.78;1.30;;;8.30;69.80;;;;;;4981782;28;20026;-68
2021/04/13 12:00:10;;;;;;;6.32;1.83;;;8.60;70.90;;;;;;4990870;28;20041;-68
2021/04/13 12:02:43;;;;;;;4.97;1.10;;;9.40;73.30;;;;;;4963842;28;20620;-67
2021/04/13 12:05:49;;;;;;;6.05;1.00;;;9.30;68.10;;;;;;4971885;28;20041;-68
2021/04/13 12:08:36;;;;;;;5.07;1.88;;;9.30;70.70;;;;;;4923477;29;20027;-69
2021/04/13 12:11:14;;;;;;;4.63;1.40;;;9.40;71.80;;;;;;4979805;28;20038;-69
2021/04/13 12:13:53;;;;;;;4.97;1.13;;;8.80;68.90;;;;;;4973395;28;20038;-68
2021/04/13 12:16:42;;;;;;;4.18;0.82;;;9.20;65.10;;;;;;4978353;28;20117;-68
2021/04/13 12:19:14;;;;;;;8.45;1.15;;;8.70;58.10;;;;;;4976438;28;20069;-69
2021/04/13 12:21:53;;;;;;;6.53;1.27;;;9.40;58.50;;;;;;4978087;28;20076;-68
2021/04/13 12:24:41;;;;;;;5.38;1.02;;;9.50;60.80;;;;;;4973676;28;20034;-68
2021/04/13 12:27:25;;;;;;;6.55;1.27;;;9.40;61.50;;;;;;4963603;28;20042;-68
2021/04/13 12:30:10;;;;;;;7.78;1.60;;;8.50;62.60;;;;;;4980831;28;20158;-68
2021/04/13 12:32:42;;;;;;;5.22;1.10;;;8.90;61.00;;;;;;4969011;28;20033;-67
2021/04/13 12:35:08;;;;;;;4.90;1.20;;;9.60;56.40;;;;;;4967729;28;20069;-68
2021/04/13 12:37:45;;;;;;;6.65;1.33;;;10.60;55.70;;;;;;4965238;28;20105;-69
2021/04/13 12:40:23;;;;;;;4.65;1.40;;;11.10;52.20;;;;;;4978930;28;20371;-69
2021/04/13 12:42:51;;;;;;;5.70;1.25;;;10.90;52.70;;;;;;4981103;28;20628;-68
2021/04/13 12:45:20;;;;;;;6.47;1.20;;;11.00;50.90;;;;;;4977992;28;20034;-68
2021/04/13 12:47:47;;;;;;;5.93;0.80;;;10.90;51.30;;;;;;4974469;28;20112;-69
2021/04/13 12:50:20;;;;;;;6.57;1.10;;;11.00;50.90;;;;;;4979335;28;20121;-68
2021/04/13 12:52:46;;;;;;;5.82;1.05;;;10.40;51.40;;;;;;4974094;28;20984;-69
2021/04/13 12:55:16;;;;;;;5.90;1.30;;;10.30;52.10;;;;;;4976797;28;20022;-68
2021/04/13 12:58:13;;;;;;;4.85;0.90;;;10.30;50.90;;;;;;4976484;28;20039;-68
2021/04/13 13:00:45;;;;;;;6.35;1.13;;;10.60;50.90;;;;;;4965314;28;20042;-69
2021/04/13 13:03:21;;;;;;;4.68;0.98;;;11.10;51.80;;;;;;4978133;28;20038;-69
2021/04/13 13:05:48;;;;;;;5.70;0.88;;;10.00;52.00;;;;;;4982667;28;20034;-68
2021/04/13 13:08:20;;;;;;;2.47;0.70;;;9.70;53.40;;;;;;4980174;28;20041;-69
2021/04/13 13:10:50;;;;;;;5.10;1.00;;;9.10;52.00;;;;;;4977248;28;20077;-68
2021/04/13 13:13:27;;;;;;;5.30;0.93;;;9.60;52.70;;;;;;4973264;28;20134;-69
2021/04/13 13:15:53;;;;;;;4.88;1.30;;;10.60;50.50;;;;;;4959994;28;20031;-68
2021/04/13 13:18:25;;;;;;;6.13;1.23;;;10.30;50.70;;;;;;4974741;28;20442;-69
2021/04/13 13:21:00;;;;;;;5.15;1.17;;;11.30;50.60;;;;;;4976782;28;20023;-69
2021/04/13 13:23:50;;;;;;;5.75;1.35;;;11.20;49.40;;;;;;4978614;28;20042;-68
2021/04/13 13:26:33;;;;;;;6.30;1.00;;;10.70;51.60;;;;;;4973433;28;20070;-67
2021/04/13 13:28:58;;;;;;;3.72;1.02;;;9.60;52.00;;;;;;4979198;28;20034;-66
2021/04/13 13:31:31;;;;;;;6.50;1.38;;;9.30;54.00;;;;;;4969985;28;20025;-67
2021/04/13 13:33:59;;;;;;;5.97;1.10;;;9.40;55.20;;;;;;4976596;28;20037;-67
2021/04/13 13:36:26;;;;;;;3.75;0.90;;;9.00;53.70;;;;;;4976051;28;20130;-67
2021/04/13 13:38:54;;;;;;;5.47;1.10;;;9.30;50.10;;;;;;4974490;28;20186;-68
2021/04/13 13:41:23;;;;;;;7.55;1.02;;;9.70;48.70;;;;;;4982376;28;20030;-68
2021/04/13 13:43:50;;;;;;;6.68;1.13;;;11.20;48.90;;;;;;4974200;28;20039;-66
2021/04/13 13:46:34;;;;;;;4.35;0.85;;;11.80;47.00;;;;;;4974308;28;20018;-67
2021/04/13 13:49:24;;;;;;;3.28;0.68;;;11.50;45.00;;;;;;4969792;28;20018;-67